Cave Springs, Texas
Current Conditions -  °F | °C
As of 2:55 PM on Sunday 21 Dec 2014 (Local Time) from KASL Reporting Station
Overcast Overcast  
Wind Chill: 56°   Ceiling: 2300
Heat Index: 56°   Visibility: 10mi
Dew Point: 47°   Wind: 6mph
Humidity: 72%   Direction: 190°S
Pressure: 29.99"   Gusts: NA
Location:  32.4675°N, 94.3321°W
Report Text: KASL 212055Z AUTO 19005KT 10SM OVC023 13/08 A2999 RMK AO1 T01320083
Loading
Personal Weather Stations






























Interactive Weather Map New forecast layout! Learn more

10-Day Weather Forecast

Advertisements
Track Severe Weather on mobile